createdAt,value
2019-03-26T00:02:23.607Z,5.77
2019-03-26T00:05:05.600Z,5.63
2019-03-26T00:07:47.510Z,6.67
2019-03-26T00:10:29.703Z,6.63
2019-03-26T00:13:11.806Z,6.17
2019-03-26T00:15:54.123Z,7.67
2019-03-26T00:18:36.069Z,6.40
2019-03-26T00:21:18.219Z,6.47
2019-03-26T00:24:00.313Z,6.17
2019-03-26T00:26:42.844Z,6.60
2019-03-26T00:29:25.334Z,6.93
2019-03-26T00:32:07.195Z,6.90
2019-03-26T00:34:49.288Z,6.43
2019-03-26T00:37:31.840Z,7.10
2019-03-26T00:40:13.718Z,7.23
2019-03-26T00:42:56.189Z,7.57
2019-03-26T00:45:38.340Z,7.63
2019-03-26T00:48:20.231Z,7.90
2019-03-26T00:51:02.747Z,7.80
2019-03-26T00:53:44.458Z,7.93
2019-03-26T00:56:26.296Z,7.50
2019-03-26T00:59:08.188Z,7.50
2019-03-26T01:01:50.497Z,8.10
2019-03-26T01:04:33.474Z,7.53
2019-03-26T01:07:15.538Z,7.33
2019-03-26T01:09:57.385Z,6.80
2019-03-26T01:12:39.298Z,6.97
2019-03-26T01:15:21.581Z,6.67
2019-03-26T01:18:03.870Z,6.10
2019-03-26T01:20:45.503Z,6.07
2019-03-26T01:23:27.935Z,5.93
2019-03-26T01:26:09.749Z,5.50
2019-03-26T01:28:52.228Z,5.50
2019-03-26T01:31:34.359Z,5.70
2019-03-26T01:34:16.577Z,5.97
2019-03-26T01:36:58.551Z,5.30
2019-03-26T01:39:40.435Z,6.33
2019-03-26T01:42:22.273Z,5.10
2019-03-26T01:45:04.482Z,5.03
2019-03-26T01:47:46.866Z,5.10
2019-03-26T01:50:29.066Z,4.57
2019-03-26T01:53:11.367Z,4.77
2019-03-26T01:55:53.741Z,4.53
2019-03-26T01:58:35.880Z,5.00
2019-03-26T02:01:17.821Z,5.20
2019-03-26T02:04:00.022Z,4.93
2019-03-26T02:06:41.899Z,5.37
2019-03-26T02:09:24.323Z,4.97
2019-03-26T02:12:07.103Z,4.60
2019-03-26T02:14:49.846Z,4.87
2019-03-26T02:17:31.920Z,4.57
2019-03-26T02:20:14.294Z,4.00
2019-03-26T02:22:56.977Z,4.73
2019-03-26T02:25:39.248Z,5.03
2019-03-26T02:28:21.888Z,4.60
2019-03-26T02:31:03.933Z,3.60
2019-03-26T02:33:46.420Z,4.83
2019-03-26T02:36:28.794Z,5.00
2019-03-26T02:39:10.554Z,6.10
2019-03-26T02:41:52.723Z,5.57
2019-03-26T02:44:34.779Z,5.00
2019-03-26T02:47:17.072Z,5.30
2019-03-26T02:49:59.088Z,4.73
2019-03-26T02:52:41.387Z,4.67
2019-03-26T02:55:23.365Z,4.97
2019-03-26T02:58:05.531Z,4.63
2019-03-26T03:00:47.247Z,5.37
2019-03-26T03:03:18.400Z,5.10
2019-03-26T03:05:49.396Z,5.10
2019-03-26T03:08:20.771Z,5.10
2019-03-26T03:10:53.364Z,4.00
2019-03-26T03:13:24.601Z,4.67
2019-03-26T03:15:56.176Z,4.60
2019-03-26T03:18:27.528Z,4.10
2019-03-26T03:20:59.022Z,4.20
2019-03-26T03:23:30.211Z,3.53
2019-03-26T03:26:01.367Z,4.20
2019-03-26T03:28:32.760Z,3.87
2019-03-26T03:31:03.812Z,4.47
2019-03-26T03:33:34.901Z,4.05
2019-03-26T03:36:06.168Z,4.20
2019-03-26T03:38:41.187Z,4.27
2019-03-26T03:41:10.236Z,4.10
2019-03-26T03:43:41.338Z,3.80
2019-03-26T03:46:12.795Z,4.53
2019-03-26T03:48:45.356Z,4.23
2019-03-26T03:51:19.397Z,4.10
2019-03-26T03:53:50.660Z,4.47
2019-03-26T03:56:22.612Z,3.60
2019-03-26T03:58:54.519Z,3.87
2019-03-26T04:01:25.931Z,3.87
2019-03-26T04:03:56.937Z,4.03
2019-03-26T04:06:28.667Z,3.37
2019-03-26T04:09:01.016Z,4.53
2019-03-26T04:11:32.242Z,4.10
2019-03-26T04:14:03.340Z,3.73
2019-03-26T04:16:34.701Z,4.40
2019-03-26T04:19:05.866Z,3.43
2019-03-26T04:21:38.984Z,3.90
2019-03-26T04:24:10.149Z,4.13
2019-03-26T04:26:41.482Z,4.60
2019-03-26T04:29:12.615Z,3.87
2019-03-26T04:31:43.825Z,4.00
2019-03-26T04:34:15.259Z,2.83
2019-03-26T04:36:46.412Z,3.20
2019-03-26T04:39:17.699Z,2.77
2019-03-26T04:41:48.894Z,2.80
2019-03-26T04:44:20.481Z,2.47
2019-03-26T04:47:02.779Z,2.77
2019-03-26T04:49:35.505Z,2.70
2019-03-26T04:52:06.605Z,2.60
2019-03-26T04:54:37.875Z,2.90
2019-03-26T04:57:09.190Z,2.83
2019-03-26T04:59:40.304Z,2.37
2019-03-26T05:02:11.810Z,3.27
2019-03-26T05:04:43.078Z,2.57
2019-03-26T05:07:14.386Z,2.40
2019-03-26T05:09:46.032Z,2.33
2019-03-26T05:12:17.371Z,2.43
2019-03-26T05:14:48.382Z,2.40
2019-03-26T05:17:19.475Z,2.77
2019-03-26T05:19:50.510Z,2.50
2019-03-26T05:22:24.440Z,2.87
2019-03-26T05:24:56.765Z,3.27
2019-03-26T05:27:28.029Z,3.27
2019-03-26T05:29:59.137Z,3.77
2019-03-26T05:32:30.494Z,3.47
2019-03-26T05:35:01.573Z,3.13
2019-03-26T05:37:32.657Z,3.27
2019-03-26T05:40:04.020Z,3.60
2019-03-26T05:42:35.038Z,3.37
2019-03-26T05:45:06.791Z,3.10
2019-03-26T05:47:38.131Z,3.73
2019-03-26T05:50:10.185Z,3.60
2019-03-26T05:52:42.719Z,4.03
2019-03-26T05:55:14.131Z,3.50
2019-03-26T05:57:46.382Z,4.20
2019-03-26T06:00:23.638Z,3.77
2019-03-26T06:02:54.919Z,3.60
2019-03-26T06:05:26.351Z,4.00
2019-03-26T06:07:58.174Z,4.07
2019-03-26T06:10:29.375Z,4.00
2019-03-26T06:13:00.865Z,4.00
2019-03-26T06:15:31.987Z,4.30
2019-03-26T06:18:03.299Z,5.60
2019-03-26T06:20:37.330Z,5.90
2019-03-26T06:23:09.045Z,4.23
2019-03-26T06:25:40.096Z,4.57
2019-03-26T06:28:11.735Z,4.27
2019-03-26T06:30:42.863Z,3.80
2019-03-26T06:33:14.171Z,4.47
2019-03-26T06:35:45.208Z,4.03
2019-03-26T06:38:16.277Z,4.50
2019-03-26T06:40:47.557Z,4.37
2019-03-26T06:43:18.723Z,4.07
2019-03-26T06:45:49.942Z,4.50
2019-03-26T06:48:21.223Z,4.37
2019-03-26T06:50:52.491Z,4.37
2019-03-26T06:53:25.559Z,4.40
2019-03-26T06:55:56.588Z,4.77
2019-03-26T06:58:27.663Z,4.30
2019-03-26T07:00:58.914Z,4.33
2019-03-26T07:03:30.293Z,4.40
2019-03-26T07:06:01.555Z,3.60
2019-03-26T07:08:32.601Z,4.43
2019-03-26T07:11:03.729Z,4.50
2019-03-26T07:13:34.721Z,4.87
2019-03-26T07:16:05.884Z,4.27
2019-03-26T07:18:39.020Z,4.27
2019-03-26T07:21:10.313Z,4.47
2019-03-26T07:23:41.507Z,4.80
2019-03-26T07:26:13.769Z,4.50
2019-03-26T07:28:44.911Z,4.50
2019-03-26T07:31:18.146Z,4.67
2019-03-26T07:33:49.751Z,5.07
2019-03-26T07:36:21.050Z,4.93
2019-03-26T07:38:52.787Z,5.30
2019-03-26T07:41:24.313Z,4.70
2019-03-26T07:43:55.248Z,4.80
2019-03-26T07:46:26.462Z,4.50
2019-03-26T07:48:57.603Z,4.90
2019-03-26T07:51:28.915Z,5.30
2019-03-26T07:54:00.260Z,4.70
2019-03-26T07:56:31.494Z,5.60
2019-03-26T07:59:02.617Z,5.70
2019-03-26T08:01:33.638Z,5.23
2019-03-26T08:04:04.839Z,5.40
2019-03-26T08:06:35.915Z,4.90
2019-03-26T08:09:08.527Z,5.87
2019-03-26T08:11:39.767Z,4.67
2019-03-26T08:14:11.100Z,4.40
2019-03-26T08:16:42.177Z,5.53
2019-03-26T08:19:13.517Z,4.97
2019-03-26T08:21:46.487Z,5.30
2019-03-26T08:24:17.732Z,5.50
2019-03-26T08:26:51.918Z,6.80
2019-03-26T08:29:23.965Z,6.90
2019-03-26T08:31:56.969Z,5.90
2019-03-26T08:34:28.015Z,4.63
2019-03-26T08:36:59.219Z,4.10
2019-03-26T08:39:30.714Z,5.57
2019-03-26T08:44:54.434Z,4.10
2019-03-26T08:47:25.819Z,4.13
2019-03-26T08:49:57.127Z,3.43
2019-03-26T08:52:28.637Z,3.80
2019-03-26T08:55:00.447Z,3.93
2019-03-26T08:57:32.073Z,4.20
2019-03-26T09:00:03.557Z,3.70
2019-03-26T09:02:36.150Z,4.30
2019-03-26T09:05:07.754Z,3.60
2019-03-26T09:07:40.025Z,3.80
2019-03-26T09:10:12.645Z,3.67
2019-03-26T09:12:44.950Z,3.87
2019-03-26T09:15:17.488Z,4.40
2019-03-26T09:17:48.659Z,4.00
2019-03-26T09:20:21.201Z,4.80
2019-03-26T09:22:53.855Z,5.00
2019-03-26T09:25:26.406Z,4.27
2019-03-26T09:27:58.562Z,4.83
2019-03-26T09:30:30.009Z,5.00
2019-03-26T09:43:31.549Z,4.43
2019-03-26T09:57:00.111Z,5.00
2019-03-26T10:03:03.997Z,4.60
2019-03-26T10:05:46.243Z,4.37
2019-03-26T10:08:29.119Z,4.83
2019-03-26T10:11:11.859Z,4.90
2019-03-26T10:13:53.854Z,4.57
2019-03-26T10:16:35.789Z,3.93
2019-03-26T10:19:17.865Z,4.13
2019-03-26T10:21:59.671Z,3.77
2019-03-26T10:24:42.367Z,3.50
2019-03-26T10:27:26.413Z,3.10
2019-03-26T10:30:08.501Z,3.77
2019-03-26T10:32:50.439Z,3.47
2019-03-26T10:35:32.713Z,3.87
2019-03-26T10:38:14.971Z,3.37
2019-03-26T10:40:56.703Z,3.77
2019-03-26T10:43:38.515Z,2.80
2019-03-26T10:46:20.991Z,3.47
2019-03-26T10:49:02.999Z,3.13
2019-03-26T10:51:45.688Z,3.00
2019-03-26T10:54:27.862Z,3.03
2019-03-26T10:57:09.709Z,3.30
2019-03-26T10:59:53.118Z,3.40
2019-03-26T11:02:35.711Z,3.60
2019-03-26T11:05:18.095Z,3.47
2019-03-26T11:08:00.531Z,3.67
2019-03-26T11:10:42.521Z,3.37
2019-03-26T11:13:25.323Z,2.77
2019-03-26T11:16:07.464Z,3.20
2019-03-26T11:18:49.510Z,3.03
2019-03-26T11:21:31.893Z,2.93
2019-03-26T11:24:13.852Z,2.60
2019-03-26T11:26:55.834Z,2.23
2019-03-26T11:29:38.611Z,3.13
2019-03-26T11:32:20.741Z,4.50
2019-03-26T11:35:03.026Z,3.77
2019-03-26T11:37:45.691Z,4.20
2019-03-26T11:40:27.987Z,4.30
2019-03-26T11:52:27.445Z,3.90
2019-03-26T11:55:09.491Z,4.40
2019-03-26T11:57:51.319Z,4.23
2019-03-26T12:00:35.708Z,4.20
2019-03-26T12:03:17.820Z,4.37
2019-03-26T12:06:00.304Z,4.10
2019-03-26T12:08:42.917Z,3.57
2019-03-26T12:11:24.943Z,3.87
2019-03-26T12:14:06.929Z,3.60
2019-03-26T12:16:49.017Z,3.30
2019-03-26T12:19:30.708Z,4.00
2019-03-26T12:22:12.563Z,5.50
2019-03-26T12:24:54.629Z,3.80
2019-03-26T12:27:37.005Z,4.00
2019-03-26T12:30:19.965Z,4.83
2019-03-26T12:33:02.121Z,4.37
2019-03-26T12:35:44.978Z,4.10
2019-03-26T12:38:27.296Z,4.30
2019-03-26T12:41:09.531Z,4.10
2019-03-26T12:43:51.878Z,3.60
2019-03-26T12:46:33.782Z,3.50
2019-03-26T12:49:15.948Z,4.47
2019-03-26T12:51:58.120Z,3.70
2019-03-26T12:54:40.125Z,4.30
2019-03-26T12:57:22.485Z,3.63
2019-03-26T13:00:04.769Z,3.53
2019-03-26T13:02:46.450Z,4.10
2019-03-26T13:05:29.202Z,3.47
2019-03-26T13:08:11.798Z,3.50
2019-03-26T13:10:54.281Z,3.40
2019-03-26T13:13:36.815Z,3.70
2019-03-26T13:16:19.092Z,3.13
2019-03-26T13:19:01.689Z,3.80
2019-03-26T13:21:43.978Z,3.30
2019-03-26T13:24:26.317Z,3.50
2019-03-26T13:27:08.376Z,3.60
2019-03-26T13:29:50.427Z,3.40
2019-03-26T13:32:32.977Z,3.60
2019-03-26T13:35:15.255Z,4.17
2019-03-26T13:37:57.341Z,3.63
2019-03-26T13:40:39.456Z,3.30
2019-03-26T13:43:21.586Z,3.80
2019-03-26T13:46:03.659Z,4.23
2019-03-26T13:48:45.526Z,4.60
2019-03-26T13:51:28.005Z,3.60
2019-03-26T13:54:10.144Z,3.90
2019-03-26T13:56:52.669Z,4.00
2019-03-26T13:59:35.311Z,3.40
2019-03-26T14:02:16.270Z,3.73
2019-03-26T14:18:05.959Z,3.70
2019-03-26T14:40:55.234Z,4.50
2019-03-26T14:44:02.335Z,4.30
2019-03-26T14:46:52.238Z,3.87
2019-03-26T14:50:01.593Z,3.60
2019-03-26T14:56:00.386Z,4.10
2019-03-26T15:05:06.745Z,3.87
2019-03-26T15:07:49.113Z,4.80
2019-03-26T15:10:31.027Z,4.57
2019-03-26T15:13:13.358Z,4.23
2019-03-26T15:15:55.680Z,3.87
2019-03-26T15:18:38.071Z,4.13
2019-03-26T15:21:20.755Z,3.97
2019-03-26T15:24:02.707Z,4.37
2019-03-26T15:26:44.823Z,4.10
2019-03-26T15:29:26.780Z,4.30
2019-03-26T15:32:09.464Z,3.90
2019-03-26T15:34:52.086Z,4.13
2019-03-26T15:37:34.602Z,4.10
2019-03-26T15:40:16.900Z,4.27
2019-03-26T15:42:59.076Z,4.07
2019-03-26T15:45:41.028Z,4.73
2019-03-26T15:48:23.391Z,3.90
2019-03-26T15:51:05.885Z,4.23
2019-03-26T15:53:47.675Z,4.17
2019-03-26T15:56:29.783Z,4.60
2019-03-26T15:59:12.287Z,4.20
2019-03-26T16:01:54.276Z,4.40
2019-03-26T16:04:36.143Z,5.27
2019-03-26T16:07:18.713Z,5.97
2019-03-26T16:10:00.960Z,4.77
2019-03-26T16:12:43.402Z,4.90
2019-03-26T16:15:25.416Z,5.87
2019-03-26T16:18:07.688Z,4.97
2019-03-26T16:20:50.080Z,4.87
2019-03-26T16:23:32.164Z,5.43
2019-03-26T16:26:13.848Z,6.10
2019-03-26T16:28:56.445Z,5.83
2019-03-26T16:31:38.442Z,6.10
2019-03-26T16:34:20.353Z,5.67
2019-03-26T16:37:02.658Z,5.47
2019-03-26T16:39:45.030Z,5.50
2019-03-26T16:42:27.014Z,5.90
2019-03-26T16:45:09.114Z,5.53
2019-03-26T16:47:51.592Z,5.73
2019-03-26T16:50:33.810Z,6.43
2019-03-26T16:53:16.056Z,6.80
2019-03-26T16:55:57.897Z,5.77
2019-03-26T16:58:39.900Z,6.47
2019-03-26T17:01:23.092Z,6.23
2019-03-26T17:04:05.377Z,7.13
2019-03-26T17:06:47.788Z,7.17
2019-03-26T17:09:29.963Z,6.30
2019-03-26T17:12:11.978Z,5.30
2019-03-26T17:14:54.095Z,4.93
2019-03-26T17:17:36.847Z,5.00
2019-03-26T17:20:18.734Z,5.03
2019-03-26T17:23:00.773Z,4.37
2019-03-26T17:25:43.212Z,4.90
2019-03-26T17:28:25.404Z,4.10
2019-03-26T17:31:07.576Z,4.53
2019-03-26T17:33:49.876Z,4.30
2019-03-26T17:36:31.965Z,4.63
2019-03-26T17:39:13.988Z,4.90
2019-03-26T17:41:56.084Z,4.87
2019-03-26T17:44:38.383Z,4.33
2019-03-26T17:47:20.251Z,4.80
2019-03-26T17:50:02.038Z,4.70
2019-03-26T17:52:44.725Z,4.27
2019-03-26T17:55:26.604Z,5.23
2019-03-26T17:58:08.305Z,4.90
2019-03-26T18:00:51.157Z,4.43
2019-03-26T18:03:33.151Z,4.93
2019-03-26T18:06:16.172Z,5.10
2019-03-26T18:08:58.849Z,5.17
2019-03-26T18:11:41.588Z,5.23
2019-03-26T18:14:23.332Z,5.70
2019-03-26T18:17:05.115Z,5.50
2019-03-26T18:19:48.964Z,6.17
2019-03-26T18:22:32.450Z,6.33
2019-03-26T18:25:14.344Z,7.83
2019-03-26T18:27:56.492Z,7.00
2019-03-26T18:30:38.362Z,7.57
2019-03-26T18:33:22.524Z,8.90
2019-03-26T18:36:03.534Z,7.83
2019-03-26T18:48:41.367Z,7.80
2019-03-26T18:58:54.461Z,8.37
2019-03-26T19:10:52.510Z,8.73
2019-03-26T19:17:31.777Z,8.60
2019-03-26T19:20:33.502Z,9.70
2019-03-26T19:23:16.060Z,9.93
2019-03-26T19:25:57.850Z,9.73
2019-03-26T19:28:41.009Z,9.97
2019-03-26T19:31:23.227Z,9.30
2019-03-26T19:34:05.215Z,9.33
2019-03-26T19:36:47.659Z,9.53
2019-03-26T19:39:30.051Z,9.20
2019-03-26T19:42:12.066Z,11.37
2019-03-26T19:44:54.073Z,10.87
2019-03-26T19:47:36.582Z,12.90
2019-03-26T19:50:18.937Z,13.60
2019-03-26T19:53:01.089Z,13.57
2019-03-26T19:55:43.416Z,12.23
2019-03-26T19:58:25.570Z,11.83
2019-03-26T20:01:07.845Z,11.13
2019-03-26T20:03:50.361Z,12.30
2019-03-26T20:06:32.908Z,13.20
2019-03-26T20:09:14.644Z,13.43
2019-03-26T20:11:57.544Z,16.80
2019-03-26T20:14:39.465Z,15.50
2019-03-26T20:17:21.642Z,13.43
2019-03-26T20:20:03.490Z,12.67
2019-03-26T20:22:45.495Z,13.23
2019-03-26T20:25:27.659Z,12.80
2019-03-26T20:28:10.178Z,12.00
2019-03-26T20:30:52.543Z,12.77
2019-03-26T20:33:34.564Z,12.37
2019-03-26T20:36:17.895Z,11.97
2019-03-26T20:39:00.789Z,11.90
2019-03-26T20:41:42.914Z,11.83
2019-03-26T20:44:25.451Z,11.10
2019-03-26T20:47:07.553Z,10.70
2019-03-26T20:49:50.241Z,10.77
2019-03-26T20:52:32.324Z,10.17
2019-03-26T20:55:14.754Z,10.97
2019-03-26T20:57:57.555Z,11.53
2019-03-26T21:00:39.607Z,10.67
2019-03-26T21:03:21.929Z,12.73
2019-03-26T21:06:04.061Z,11.27
2019-03-26T21:08:46.329Z,11.63
2019-03-26T21:11:28.102Z,11.53
2019-03-26T21:14:10.102Z,11.60
2019-03-26T21:16:52.357Z,11.47
2019-03-26T21:19:34.755Z,11.83
2019-03-26T21:22:16.695Z,11.37
2019-03-26T21:24:58.935Z,10.70
2019-03-26T21:27:41.090Z,11.30
2019-03-26T21:30:23.536Z,10.70
2019-03-26T21:33:05.806Z,9.97
2019-03-26T21:35:48.124Z,10.60
2019-03-26T21:38:30.328Z,9.67
2019-03-26T21:41:12.710Z,10.30
2019-03-26T21:44:04.308Z,9.93
2019-03-26T21:46:39.276Z,10.37
2019-03-26T21:49:21.617Z,10.07
2019-03-26T21:52:04.123Z,8.93
2019-03-26T21:54:46.137Z,10.13
2019-03-26T21:57:27.877Z,9.60
2019-03-26T22:00:09.754Z,10.33
2019-03-26T22:02:51.934Z,9.83
2019-03-26T22:05:34.398Z,10.60
2019-03-26T22:08:16.546Z,10.93
2019-03-26T22:10:58.487Z,11.20
2019-03-26T22:13:40.627Z,12.40
2019-03-26T22:16:22.534Z,13.03
2019-03-26T22:19:05.061Z,11.30
2019-03-26T22:21:47.549Z,11.37
2019-03-26T22:24:29.736Z,11.70
2019-03-26T22:27:11.566Z,10.03
2019-03-26T22:29:54.953Z,11.20
2019-03-26T22:32:36.933Z,9.77
2019-03-26T22:35:19.092Z,10.87
2019-03-26T22:38:01.468Z,9.00
2019-03-26T22:40:43.729Z,10.00
2019-03-26T22:43:26.316Z,10.00
2019-03-26T22:46:08.527Z,9.87
2019-03-26T22:48:50.455Z,11.10
2019-03-26T22:51:33.099Z,11.20
2019-03-26T22:54:15.098Z,11.47
2019-03-26T22:56:56.856Z,11.83
2019-03-26T22:59:38.820Z,12.43
2019-03-26T23:02:20.838Z,11.63
2019-03-26T23:05:03.217Z,12.20
2019-03-26T23:07:45.054Z,12.77
2019-03-26T23:10:27.213Z,16.13
2019-03-26T23:13:09.392Z,13.50
2019-03-26T23:15:51.417Z,11.80
2019-03-26T23:18:33.813Z,10.03
2019-03-26T23:21:19.639Z,10.17
2019-03-26T23:23:59.965Z,11.00
2019-03-26T23:26:42.089Z,11.23
2019-03-26T23:29:24.340Z,11.20
2019-03-26T23:32:06.659Z,10.97
2019-03-26T23:34:49.142Z,10.57
2019-03-26T23:37:30.924Z,10.30
2019-03-26T23:40:12.720Z,11.30
2019-03-26T23:42:54.757Z,10.37
2019-03-26T23:45:37.043Z,10.80
2019-03-26T23:48:19.055Z,10.47
2019-03-26T23:51:01.109Z,10.70
2019-03-26T23:53:42.923Z,11.03
2019-03-26T23:56:25.307Z,10.27
2019-03-26T23:59:07.832Z,10.80
